Terminal Aerodrome Forecast
Issued by NWS Shreveport, LA

Home | Current Version | Previous Version | Text Only | Print | Product List | Glossary On
Versions: 1 2 3 4 5 6 7 8 9 10 11 12
596
FTUS44 KSHV 130542
TAFTYR
TAF
KTYR 130542Z 1306/1406 03004KT P6SM SKC
     FM131200 07009KT P6SM FEW140
     FM131500 09012KT P6SM SKC
     FM140000 12008KT P6SM BKN040 OVC250=

USA.gov is the U.S. government's official web portal to all federal, state and local government web resources and services.